| Date | Time | Temp. (oF) | Dew Point (oF) | Rel. Hum. (%) | Press. (in.) | Wind Dir. | Wind Speed (mph) | Hourly Rainfall (in.) |
|
|---|---|---|---|---|---|---|---|---|---|
| 1 | 06/15 | 00:00 | 81 | 73 | 78 | 29.67 | SSW | 3 | 0.00 |
| 2 | 06/14 | 23:00 | 82 | 74 | 77 | 29.67 | S | 5 | 0.00 |
| 3 | 06/14 | 22:00 | 84 | 74 | 74 | 29.68 | S | 2 | 0.00 |
| 4 | 06/14 | 21:00 | 86 | 73 | 67 | 29.67 | SSW | 2 | 0.00 |
| 5 | 06/14 | 20:00 | 89 | 72 | 58 | 29.66 | S | 5 | 0.00 |
| 6 | 06/14 | 19:00 | 91 | 73 | 57 | 29.64 | W | 2 | 0.00 |
| 7 | 06/14 | 18:00 | 92 | 71 | 52 | 29.64 | W | 5 | 0.00 |
| 8 | 06/14 | 17:00 | 93 | 74 | 55 | 29.66 | S | 8 | 0.00 |
| 9 | 06/14 | 16:00 | 92 | 74 | 57 | 29.68 | SW | 9 | 0.00 |
| 10 | 06/14 | 15:00 | 92 | 74 | 58 | 29.69 | WSW | 4 | 0.00 |
| 11 | 06/14 | 14:00 | 90 | 73 | 59 | 29.72 | SW | 12 | 0.00 |
| 12 | 06/14 | 13:00 | 88 | 74 | 64 | 29.73 | WNW | 16 | 0.00 |
| 13 | 06/14 | 12:00 | 85 | 73 | 69 | 29.75 | W | 7 | 0.00 |
| 14 | 06/14 | 11:00 | 84 | 74 | 73 | 29.76 | NW | 7 | 0.00 |
| 15 | 06/14 | 10:00 | 84 | 74 | 73 | 29.76 | W | 3 | 0.00 |
| 16 | 06/14 | 09:00 | 81 | 73 | 79 | 29.77 | W | 4 | 0.00 |
| 17 | 06/14 | 08:00 | 78 | 73 | 85 | 29.77 | SW | 2 | 0.00 |
| 18 | 06/14 | 07:00 | 75 | 72 | 92 | 29.77 | W | 4 | 0.00 |
| 19 | 06/14 | 06:00 | 74 | 72 | 94 | 29.76 | SW | 2 | 0.00 |
| 20 | 06/14 | 05:00 | 74 | 73 | 97 | 29.75 | SSW | 4 | 0.00 |
| 21 | 06/14 | 04:00 | 75 | 74 | 99 | 29.75 | SW | 1 | 0.00 |
| 22 | 06/14 | 03:00 | 75 | 75 | 100 | 29.75 | WSW | 2 | 0.00 |
| 23 | 06/14 | 02:00 | 76 | 76 | 100 | 29.76 | WSW | 0 | 0.00 |
| 24 | 06/14 | 01:00 | 77 | 77 | 100 | 29.76 | SSW | 2 | 0.00 |